Time;durP1;ratioP1;P1;durP2;ratioP2;P2;SDS_P1;SDS_P2;PMS_P1;PMS_P2;Temp;Humidity;BMP_temperature;BMP_pressure;BME280_temperature;BME280_humidity;BME280_pressure;Samples;Min_cycle;Max_cycle;Signal;HPM_P1;HPM_P2
2023/07/05 00:01:28;;;;;;;4.57;4.10;;;18.30;99.90;;;;;;5068439;28;20416;-66
2023/07/05 00:03:55;;;;;;;5.47;4.60;;;18.30;99.90;;;;;;5068285;28;20465;-66
2023/07/05 00:06:21;;;;;;;4.65;3.67;;;18.30;99.90;;;;;;5068375;28;20511;-67
2023/07/05 00:08:48;;;;;;;5.90;4.05;;;18.30;99.90;;;;;;5066501;28;20423;-67
2023/07/05 00:11:16;;;;;;;4.30;3.70;;;18.30;99.50;;;;;;5068155;28;20416;-66
2023/07/05 00:13:43;;;;;;;4.90;3.60;;;18.30;99.80;;;;;;5067887;28;20887;-66
2023/07/05 00:16:11;;;;;;;4.43;3.90;;;18.30;99.60;;;;;;5067026;28;20427;-67
2023/07/05 00:18:38;;;;;;;5.13;3.50;;;18.30;99.90;;;;;;5067863;28;20423;-68
2023/07/05 00:21:06;;;;;;;5.25;3.85;;;18.30;99.70;;;;;;5067910;28;20412;-68
2023/07/05 00:23:35;;;;;;;3.78;3.38;;;18.30;99.70;;;;;;5070661;28;20418;-68
2023/07/05 00:26:02;;;;;;;4.38;3.40;;;18.30;99.70;;;;;;5071210;28;20419;-67
2023/07/05 00:28:33;;;;;;;4.30;3.40;;;18.30;99.60;;;;;;5071780;28;20411;-67
2023/07/05 00:30:59;;;;;;;3.60;3.30;;;18.30;99.60;;;;;;5071722;28;20418;-68
2023/07/05 00:33:26;;;;;;;5.53;3.90;;;18.30;99.90;;;;;;5071670;28;20431;-68
2023/07/05 00:35:54;;;;;;;3.80;3.20;;;18.30;98.80;;;;;;5071759;28;20424;-68
2023/07/05 00:38:22;;;;;;;3.78;3.38;;;18.30;99.40;;;;;;5070223;28;20422;-67
2023/07/05 00:40:50;;;;;;;3.88;3.08;;;18.30;99.90;;;;;;5071182;28;20429;-68
2023/07/05 00:43:18;;;;;;;3.78;3.03;;;18.30;99.50;;;;;;5071762;28;20430;-68
2023/07/05 00:45:57;;;;;;;3.70;2.90;;;18.30;99.60;;;;;;5071601;28;20403;-68
2023/07/05 00:48:31;;;;;;;3.30;3.00;;;18.40;99.40;;;;;;5071605;28;20434;-68
2023/07/05 00:51:01;;;;;;;3.95;3.30;;;18.40;99.80;;;;;;5068592;28;20515;-67
2023/07/05 00:53:30;;;;;;;3.67;3.10;;;18.40;99.90;;;;;;5069923;28;20438;-67
2023/07/05 00:56:01;;;;;;;4.80;3.20;;;18.40;99.90;;;;;;5071028;28;20501;-67
2023/07/05 00:58:28;;;;;;;4.13;3.55;;;18.30;99.90;;;;;;5071451;28;20933;-67
2023/07/05 01:00:56;;;;;;;5.18;3.28;;;18.20;99.90;;;;;;5071415;28;20427;-67
2023/07/05 01:03:25;;;;;;;3.47;3.08;;;18.20;99.90;;;;;;5070557;28;20415;-67
2023/07/05 01:05:55;;;;;;;4.10;3.22;;;18.10;99.90;;;;;;5070576;28;20434;-67
2023/07/05 01:08:23;;;;;;;3.80;3.30;;;18.10;99.90;;;;;;5070840;28;20426;-68
2023/07/05 01:10:59;;;;;;;3.05;2.75;;;17.90;99.90;;;;;;5070110;28;20919;-67
2023/07/05 01:13:31;;;;;;;3.65;3.28;;;17.90;99.90;;;;;;5071391;28;20461;-67
2023/07/05 01:16:08;;;;;;;3.65;3.00;;;17.90;99.90;;;;;;5071708;28;20925;-67
2023/07/05 01:18:44;;;;;;;3.15;2.85;;;17.90;99.90;;;;;;5070943;28;20415;-68
2023/07/05 01:21:24;;;;;;;3.60;3.20;;;17.80;99.90;;;;;;5069377;28;20431;-67
2023/07/05 01:24:27;;;;;;;4.20;3.80;;;17.80;99.90;;;;;;5068684;28;20431;-68
2023/07/05 01:27:44;;;;;;;3.38;3.08;;;17.80;99.90;;;;;;5062726;28;20426;-68
2023/07/05 01:30:35;;;;;;;3.50;3.20;;;17.80;99.90;;;;;;5013906;28;20420;-68
2023/07/05 01:33:06;;;;;;;5.00;3.40;;;17.80;99.90;;;;;;5070893;28;20411;-68
2023/07/05 01:35:39;;;;;;;4.00;3.00;;;17.80;99.90;;;;;;5070692;28;20932;-67
2023/07/05 01:38:08;;;;;;;4.30;3.10;;;17.80;99.90;;;;;;5069965;28;20439;-67
2023/07/05 01:40:56;;;;;;;3.72;2.90;;;17.80;99.90;;;;;;5068252;28;20434;-67
2023/07/05 01:43:26;;;;;;;3.53;2.97;;;17.80;99.90;;;;;;5069615;28;20489;-68
2023/07/05 01:46:08;;;;;;;3.53;3.00;;;17.80;99.90;;;;;;5070820;28;20495;-67
2023/07/05 01:48:43;;;;;;;3.33;3.03;;;17.80;99.90;;;;;;5070524;28;20407;-68
2023/07/05 01:51:16;;;;;;;3.50;2.70;;;17.80;99.90;;;;;;5070535;28;20434;-68
2023/07/05 01:53:51;;;;;;;3.42;2.90;;;17.80;99.90;;;;;;5068579;28;20871;-68
2023/07/05 01:56:21;;;;;;;4.30;3.28;;;17.80;99.90;;;;;;5070502;28;20914;-68
2023/07/05 01:58:51;;;;;;;3.70;3.10;;;17.80;99.90;;;;;;5070138;28;20433;-68
2023/07/05 02:01:20;;;;;;;3.53;2.70;;;17.80;99.90;;;;;;5070460;28;20434;-68
2023/07/05 02:03:50;;;;;;;2.90;2.60;;;17.80;99.90;;;;;;5070168;28;20411;-68
2023/07/05 02:06:18;;;;;;;3.53;2.30;;;17.80;99.90;;;;;;5070429;28;20416;-68
2023/07/05 02:08:49;;;;;;;2.67;2.20;;;17.80;99.90;;;;;;5068496;28;20427;-68
2023/07/05 02:11:16;;;;;;;3.10;2.40;;;17.80;99.90;;;;;;5070499;28;20727;-68
2023/07/05 02:13:43;;;;;;;3.33;2.38;;;17.90;99.90;;;;;;5070297;28;20421;-68
2023/07/05 02:16:10;;;;;;;2.75;2.55;;;17.90;99.90;;;;;;5069961;28;20424;-68
2023/07/05 02:18:36;;;;;;;3.05;2.55;;;17.90;99.90;;;;;;5070127;28;20419;-68
2023/07/05 02:21:09;;;;;;;2.50;2.10;;;18.00;99.90;;;;;;5068931;28;20431;-68
2023/07/05 02:23:35;;;;;;;2.60;2.10;;;17.90;99.90;;;;;;5068669;28;20995;-68
2023/07/05 02:26:05;;;;;;;2.97;2.67;;;17.90;99.90;;;;;;5069227;28;20411;-68
2023/07/05 02:28:32;;;;;;;3.50;2.50;;;17.90;99.90;;;;;;5069419;28;20418;-67
2023/07/05 02:31:04;;;;;;;2.35;2.15;;;17.90;99.90;;;;;;5069580;28;20407;-68
2023/07/05 02:33:31;;;;;;;3.80;2.70;;;17.80;99.90;;;;;;5070085;28;20416;-68
2023/07/05 02:35:58;;;;;;;3.30;2.63;;;17.80;99.90;;;;;;5068668;28;20427;-68
2023/07/05 02:38:26;;;;;;;3.22;2.58;;;17.70;99.90;;;;;;5068157;28;20430;-67
2023/07/05 02:40:52;;;;;;;2.50;2.20;;;17.70;99.90;;;;;;5069423;28;20408;-67
2023/07/05 02:43:20;;;;;;;3.60;2.80;;;17.60;99.90;;;;;;5069675;28;20870;-67
2023/07/05 02:45:46;;;;;;;3.25;2.60;;;17.60;99.90;;;;;;5069258;28;20439;-67
2023/07/05 02:48:13;;;;;;;3.67;2.72;;;17.50;99.90;;;;;;5069642;28;20408;-67
2023/07/05 02:50:40;;;;;;;3.10;2.80;;;17.40;99.90;;;;;;5068130;28;20451;-67
2023/07/05 02:53:07;;;;;;;3.13;2.83;;;17.40;99.90;;;;;;5068913;28;20459;-67
2023/07/05 02:55:35;;;;;;;3.13;2.60;;;17.30;99.90;;;;;;5068590;28;20423;-67
2023/07/05 02:58:01;;;;;;;2.80;2.20;;;17.30;99.90;;;;;;5069578;28;20542;-67
2023/07/05 03:00:29;;;;;;;2.95;2.10;;;17.10;99.90;;;;;;5069097;28;20905;-67
2023/07/05 03:02:56;;;;;;;1.73;1.60;;;17.00;99.90;;;;;;5069651;28;20411;-67
2023/07/05 03:05:23;;;;;;;3.10;2.00;;;16.80;99.90;;;;;;5068011;28;20913;-67
2023/07/05 03:07:50;;;;;;;2.60;1.75;;;16.80;99.90;;;;;;5068199;28;20480;-67
2023/07/05 03:10:16;;;;;;;2.30;1.40;;;16.60;99.90;;;;;;5068398;28;20507;-67
2023/07/05 03:12:44;;;;;;;2.08;1.40;;;16.50;99.90;;;;;;5069240;28;20423;-67
2023/07/05 03:15:11;;;;;;;2.05;1.40;;;16.40;99.90;;;;;;5069192;28;20831;-67
2023/07/05 03:17:39;;;;;;;2.08;1.30;;;16.30;99.90;;;;;;5069461;28;20430;-67
2023/07/05 03:20:07;;;;;;;1.60;1.30;;;16.20;99.90;;;;;;5068523;28;20923;-67
2023/07/05 03:22:34;;;;;;;2.30;1.40;;;16.10;99.90;;;;;;5068096;28;20898;-67
2023/07/05 03:25:00;;;;;;;2.22;1.40;;;16.00;99.90;;;;;;5068400;28;20431;-67
2023/07/05 03:27:28;;;;;;;2.47;1.30;;;16.00;99.90;;;;;;5069025;28;20761;-67
2023/07/05 03:29:56;;;;;;;1.80;1.23;;;16.00;99.90;;;;;;5068500;28;20411;-67
2023/07/05 03:32:23;;;;;;;2.17;1.40;;;15.90;99.90;;;;;;5068824;28;20431;-68
2023/07/05 03:34:51;;;;;;;6.13;1.60;;;15.90;99.50;;;;;;5068420;28;20412;-67
2023/07/05 03:37:18;;;;;;;2.30;1.40;;;15.90;99.90;;;;;;5067815;28;20493;-68
2023/07/05 03:39:44;;;;;;;2.30;1.20;;;15.90;99.10;;;;;;5065348;28;20822;-68
2023/07/05 03:42:11;;;;;;;1.70;1.20;;;15.80;98.90;;;;;;5068887;28;20423;-67
2023/07/05 03:44:38;;;;;;;2.28;1.40;;;15.80;98.10;;;;;;5068578;28;20731;-67
2023/07/05 03:47:06;;;;;;;2.70;1.27;;;15.80;98.00;;;;;;5068860;28;20414;-68
2023/07/05 03:49:33;;;;;;;2.20;1.60;;;15.80;98.40;;;;;;5068086;28;20893;-68
2023/07/05 03:52:00;;;;;;;2.40;1.30;;;15.80;98.10;;;;;;5067931;28;20538;-68
2023/07/05 03:54:28;;;;;;;3.65;1.38;;;15.80;97.90;;;;;;5067937;28;20423;-68
2023/07/05 03:56:54;;;;;;;2.40;1.40;;;15.80;98.90;;;;;;5067712;28;20902;-67
2023/07/05 03:59:21;;;;;;;2.70;1.50;;;15.80;98.30;;;;;;5068211;28;20415;-68
2023/07/05 04:01:48;;;;;;;1.67;1.10;;;15.80;97.20;;;;;;5068670;28;20437;-67
2023/07/05 04:04:16;;;;;;;2.58;1.52;;;15.70;97.00;;;;;;5066582;28;20428;-67
2023/07/05 04:06:42;;;;;;;2.10;1.40;;;15.70;96.10;;;;;;5067091;28;20420;-68
2023/07/05 04:09:09;;;;;;;1.80;1.20;;;15.70;94.90;;;;;;5067371;28;20438;-68
2023/07/05 04:11:36;;;;;;;2.60;1.50;;;15.60;94.80;;;;;;5068522;28;20416;-68
2023/07/05 04:14:03;;;;;;;2.40;1.40;;;15.50;94.50;;;;;;5068064;28;20557;-68
2023/07/05 04:16:30;;;;;;;1.88;1.30;;;15.40;95.00;;;;;;5067853;28;20412;-68
2023/07/05 04:18:57;;;;;;;3.83;1.88;;;15.40;95.00;;;;;;5067287;28;20427;-68
2023/07/05 04:21:27;;;;;;;2.65;1.50;;;15.40;94.20;;;;;;5068442;28;20793;-67
2023/07/05 04:23:54;;;;;;;2.27;1.60;;;15.30;94.10;;;;;;5067283;28;20498;-67
2023/07/05 04:26:23;;;;;;;2.60;1.70;;;15.20;93.70;;;;;;5068232;28;20423;-68
2023/07/05 04:28:50;;;;;;;2.00;1.40;;;15.20;93.10;;;;;;5067778;28;20419;-68
2023/07/05 04:31:23;;;;;;;2.47;1.60;;;15.20;93.80;;;;;;5067719;28;20457;-69
2023/07/05 04:33:50;;;;;;;1.90;1.50;;;15.10;93.80;;;;;;5067906;28;20412;-68
2023/07/05 04:36:17;;;;;;;2.42;1.60;;;15.10;94.00;;;;;;5068452;28;20428;-67
2023/07/05 04:38:45;;;;;;;3.00;1.80;;;15.00;94.20;;;;;;5065582;28;20423;-68
2023/07/05 04:41:12;;;;;;;2.70;2.20;;;15.00;93.70;;;;;;5067690;28;20422;-68
2023/07/05 04:43:38;;;;;;;2.30;1.90;;;15.00;94.20;;;;;;5067867;28;20416;-68
2023/07/05 04:46:05;;;;;;;3.00;1.90;;;15.00;93.90;;;;;;5068174;28;20420;-68
2023/07/05 04:48:32;;;;;;;2.70;1.80;;;15.00;93.20;;;;;;5065007;28;20885;-68
2023/07/05 04:50:59;;;;;;;3.00;1.80;;;15.00;93.30;;;;;;5066461;28;20430;-68
2023/07/05 04:53:27;;;;;;;2.60;1.90;;;15.00;93.10;;;;;;5065958;28;20435;-68
2023/07/05 04:55:57;;;;;;;4.70;2.00;;;14.90;93.50;;;;;;5059417;28;20427;-68
2023/07/05 04:58:25;;;;;;;2.92;1.70;;;14.90;93.80;;;;;;5067627;28;20939;-68
2023/07/05 05:00:52;;;;;;;3.10;2.05;;;15.00;93.70;;;;;;5066469;28;20427;-68
2023/07/05 05:03:21;;;;;;;2.88;1.92;;;15.00;92.40;;;;;;5067698;28;20499;-68
2023/07/05 05:05:49;;;;;;;3.03;1.90;;;15.00;92.00;;;;;;5067904;28;20420;-68
2023/07/05 05:08:16;;;;;;;3.50;2.40;;;15.00;92.10;;;;;;5067350;28;20428;-68
2023/07/05 05:10:43;;;;;;;4.03;2.60;;;15.00;91.70;;;;;;5070686;28;20421;-68
2023/07/05 05:13:11;;;;;;;2.60;2.20;;;15.00;91.00;;;;;;5071236;28;20798;-68
2023/07/05 05:15:38;;;;;;;4.15;2.60;;;15.00;91.20;;;;;;5069937;28;20431;-67
2023/07/05 05:18:05;;;;;;;3.42;2.50;;;15.00;91.50;;;;;;5071171;28;20885;-68
2023/07/05 05:20:32;;;;;;;4.13;2.75;;;14.90;90.40;;;;;;5070635;28;20762;-68
2023/07/05 05:22:59;;;;;;;3.42;2.80;;;15.00;91.00;;;;;;5069702;28;20462;-68
2023/07/05 05:25:26;;;;;;;3.20;2.63;;;15.00;88.50;;;;;;5070497;28;20415;-68
2023/07/05 05:27:53;;;;;;;3.13;2.53;;;15.10;89.20;;;;;;5071042;28;20408;-68
2023/07/05 05:30:21;;;;;;;4.00;2.90;;;15.10;88.50;;;;;;5068872;28;20433;-68
2023/07/05 05:32:48;;;;;;;3.85;2.65;;;15.10;88.50;;;;;;5070897;28;20495;-68
2023/07/05 05:35:15;;;;;;;4.90;3.00;;;15.10;87.90;;;;;;5070609;28;20427;-68
2023/07/05 05:37:42;;;;;;;3.80;2.90;;;15.20;88.80;;;;;;5070953;28;20900;-67
2023/07/05 05:40:10;;;;;;;3.90;2.90;;;15.30;86.40;;;;;;5069213;28;20439;-67
2023/07/05 05:42:37;;;;;;;3.33;2.60;;;15.30;84.60;;;;;;5071039;28;20917;-68
2023/07/05 05:45:05;;;;;;;3.85;2.90;;;15.30;83.90;;;;;;5070754;28;20415;-68
2023/07/05 05:47:33;;;;;;;3.17;2.55;;;15.40;81.90;;;;;;5069023;28;20450;-68
2023/07/05 05:50:00;;;;;;;3.90;3.00;;;15.40;83.70;;;;;;5069942;28;20419;-67
2023/07/05 05:52:27;;;;;;;3.10;2.50;;;15.40;83.30;;;;;;5070753;28;20427;-68
2023/07/05 05:54:53;;;;;;;4.47;2.70;;;15.30;81.70;;;;;;5068852;28;20461;-68
2023/07/05 05:57:20;;;;;;;3.08;2.63;;;15.30;80.90;;;;;;5069439;28;20446;-68
2023/07/05 05:59:47;;;;;;;5.00;3.00;;;15.30;80.20;;;;;;5068289;28;20411;-68
2023/07/05 06:02:14;;;;;;;3.03;2.63;;;15.40;78.30;;;;;;5069875;28;20936;-68
2023/07/05 06:04:42;;;;;;;4.18;3.05;;;15.50;76.50;;;;;;5070300;28;20420;-69
2023/07/05 06:07:08;;;;;;;3.42;2.70;;;15.50;76.40;;;;;;5070368;28;20418;-68
2023/07/05 06:09:38;;;;;;;4.15;2.70;;;15.60;77.00;;;;;;5066199;28;20424;-68
2023/07/05 06:12:06;;;;;;;4.05;2.70;;;15.70;75.80;;;;;;5069337;28;20427;-68
2023/07/05 06:14:32;;;;;;;2.95;2.42;;;15.90;75.80;;;;;;5069687;28;20416;-68
2023/07/05 06:16:59;;;;;;;4.65;2.53;;;15.90;73.30;;;;;;5070209;28;20412;-68
2023/07/05 06:19:26;;;;;;;3.78;2.45;;;16.00;74.30;;;;;;5068911;28;20424;-69
2023/07/05 06:21:54;;;;;;;3.60;2.40;;;16.00;72.20;;;;;;5069483;28;20424;-68
2023/07/05 06:24:20;;;;;;;2.83;2.20;;;16.00;72.80;;;;;;5067600;28;20435;-68
2023/07/05 06:26:47;;;;;;;4.20;2.20;;;15.90;71.50;;;;;;5069760;28;20431;-68
2023/07/05 06:29:14;;;;;;;3.97;2.30;;;15.90;72.30;;;;;;5069240;28;20440;-68
2023/07/05 06:31:40;;;;;;;3.20;2.27;;;15.90;73.20;;;;;;5069862;28;21027;-68
2023/07/05 06:34:07;;;;;;;2.72;1.90;;;15.90;71.70;;;;;;5069743;28;20430;-67
2023/07/05 06:36:34;;;;;;;3.95;2.00;;;15.80;72.20;;;;;;5069781;28;20419;-67
2023/07/05 06:39:04;;;;;;;3.67;2.13;;;15.80;73.80;;;;;;5065981;28;20436;-68
2023/07/05 06:41:30;;;;;;;3.38;1.85;;;15.70;73.30;;;;;;5067835;28;20454;-67
2023/07/05 06:43:57;;;;;;;3.90;2.42;;;15.70;72.90;;;;;;5069178;28;20456;-67
2023/07/05 06:46:24;;;;;;;2.90;2.10;;;15.70;72.70;;;;;;5069501;28;20411;-67
2023/07/05 06:48:51;;;;;;;2.58;2.00;;;15.70;74.00;;;;;;5069400;28;20753;-67
2023/07/05 06:51:18;;;;;;;3.35;2.25;;;15.70;80.40;;;;;;5069626;28;20411;-67
2023/07/05 06:53:45;;;;;;;3.65;1.80;;;15.50;82.80;;;;;;5067415;28;20878;-67
2023/07/05 06:56:13;;;;;;;3.65;1.92;;;15.30;82.60;;;;;;5069188;28;20419;-67
2023/07/05 06:58:40;;;;;;;3.43;2.00;;;15.20;82.80;;;;;;5068999;28;20617;-67
2023/07/05 07:01:06;;;;;;;2.60;1.80;;;15.20;82.20;;;;;;5067678;28;20462;-67
2023/07/05 07:03:33;;;;;;;2.60;1.98;;;15.30;81.50;;;;;;5067984;28;20434;-67
2023/07/05 07:06:00;;;;;;;3.17;2.30;;;15.30;80.30;;;;;;5068837;28;20850;-67
2023/07/05 07:08:30;;;;;;;3.37;2.03;;;15.40;80.70;;;;;;5067170;28;20560;-67
2023/07/05 07:11:01;;;;;;;3.80;1.80;;;15.50;78.90;;;;;;5060220;28;20534;-67
2023/07/05 07:13:29;;;;;;;3.30;1.70;;;15.50;77.50;;;;;;5066508;28;20529;-67
2023/07/05 07:16:00;;;;;;;3.90;1.70;;;15.50;76.60;;;;;;5068216;28;20785;-67
2023/07/05 07:18:27;;;;;;;3.28;1.80;;;15.60;76.60;;;;;;5066559;28;20434;-67
2023/07/05 07:20:55;;;;;;;2.40;1.45;;;15.60;77.40;;;;;;5059711;28;20423;-67
2023/07/05 07:23:22;;;;;;;3.20;1.70;;;15.70;76.80;;;;;;5067000;28;21644;-67
2023/07/05 07:25:59;;;;;;;4.10;1.65;;;15.80;74.60;;;;;;5068573;28;20450;-67
2023/07/05 07:28:25;;;;;;;4.03;1.70;;;15.90;75.10;;;;;;5068113;28;20597;-67
2023/07/05 07:30:54;;;;;;;3.28;2.30;;;15.90;74.50;;;;;;5068060;28;20435;-67
2023/07/05 07:33:20;;;;;;;3.38;1.45;;;16.00;73.90;;;;;;5067741;28;20432;-67
2023/07/05 07:35:48;;;;;;;3.08;1.30;;;16.00;73.40;;;;;;5068602;28;20408;-67
2023/07/05 07:38:15;;;;;;;2.10;1.40;;;16.00;72.50;;;;;;5067362;28;20424;-67
2023/07/05 07:40:42;;;;;;;2.20;1.40;;;16.00;72.80;;;;;;5067748;28;20419;-67
2023/07/05 07:43:09;;;;;;;2.25;1.20;;;15.90;74.00;;;;;;5068376;28;20416;-67
2023/07/05 07:45:36;;;;;;;6.87;1.40;;;15.90;73.50;;;;;;5068504;28;20474;-67
2023/07/05 07:48:04;;;;;;;2.45;1.20;;;16.00;72.60;;;;;;5067308;28;20424;-67
2023/07/05 07:50:31;;;;;;;2.22;1.30;;;16.00;73.20;;;;;;5067818;28;20426;-67
2023/07/05 07:52:58;;;;;;;3.50;1.40;;;16.10;72.70;;;;;;5068502;28;20419;-67
2023/07/05 07:55:24;;;;;;;6.10;1.70;;;16.20;72.40;;;;;;5066914;28;20915;-67
2023/07/05 07:57:51;;;;;;;3.00;1.17;;;16.20;72.70;;;;;;5068132;28;20412;-67
2023/07/05 08:00:19;;;;;;;2.60;1.30;;;16.10;72.30;;;;;;5067627;28;20901;-67
2023/07/05 08:02:45;;;;;;;1.70;1.20;;;16.10;72.40;;;;;;5068104;28;20414;-68
2023/07/05 08:05:18;;;;;;;2.50;1.40;;;16.10;71.90;;;;;;5066943;28;20439;-67
2023/07/05 08:07:45;;;;;;;2.40;1.20;;;16.10;72.30;;;;;;5068286;28;20841;-67
2023/07/05 08:10:11;;;;;;;3.60;1.30;;;16.10;72.80;;;;;;5066333;28;20424;-67
2023/07/05 08:12:38;;;;;;;1.70;1.10;;;16.10;72.40;;;;;;5068411;28;20416;-67
2023/07/05 08:15:06;;;;;;;1.70;1.27;;;16.10;72.50;;;;;;5068093;28;20424;-67
2023/07/05 08:17:34;;;;;;;4.32;1.23;;;16.20;71.90;;;;;;5067358;28;20434;-67
2023/07/05 08:20:01;;;;;;;2.22;1.20;;;16.30;71.10;;;;;;5067453;28;20431;-66
2023/07/05 08:22:29;;;;;;;1.70;1.20;;;16.50;71.00;;;;;;5068621;28;20435;-68
2023/07/05 08:24:56;;;;;;;3.55;1.38;;;16.60;68.90;;;;;;5066677;28;20431;-67
2023/07/05 08:27:23;;;;;;;3.60;1.27;;;16.70;67.90;;;;;;5068266;28;20415;-66
2023/07/05 08:29:50;;;;;;;2.92;1.70;;;16.70;68.20;;;;;;5065793;28;20434;-68
2023/07/05 08:32:18;;;;;;;2.33;1.30;;;16.70;68.00;;;;;;5068251;28;21087;-67
2023/07/05 08:34:45;;;;;;;2.60;1.20;;;16.70;67.70;;;;;;5067645;28;20478;-67
2023/07/05 08:37:12;;;;;;;3.60;1.40;;;16.60;68.70;;;;;;5067598;28;20435;-66
2023/07/05 08:39:40;;;;;;;3.23;1.37;;;16.70;68.10;;;;;;5065974;28;20517;-66
2023/07/05 08:42:21;;;;;;;4.35;1.80;;;16.60;67.40;;;;;;5068153;28;20422;-67
2023/07/05 08:45:03;;;;;;;2.50;1.20;;;16.50;68.00;;;;;;5069562;28;20439;-68
2023/07/05 08:47:37;;;;;;;2.60;1.10;;;16.50;66.90;;;;;;5071913;28;20464;-69
2023/07/05 08:50:11;;;;;;;2.10;1.30;;;16.40;67.60;;;;;;5071315;28;20415;-67
2023/07/05 08:52:43;;;;;;;3.50;1.45;;;16.50;67.80;;;;;;5071801;28;20922;-70
2023/07/05 08:55:14;;;;;;;4.15;1.20;;;16.50;67.30;;;;;;5069257;28;20634;-68
2023/07/05 08:57:46;;;;;;;4.65;1.40;;;16.60;66.80;;;;;;5071495;28;20411;-69
2023/07/05 09:00:17;;;;;;;4.70;1.73;;;16.60;67.40;;;;;;5070487;28;20431;-67
2023/07/05 09:02:44;;;;;;;2.42;1.42;;;16.70;66.60;;;;;;5070826;28;20902;-69
2023/07/05 09:05:16;;;;;;;2.22;1.17;;;16.80;67.10;;;;;;5071183;28;20431;-67
2023/07/05 09:07:54;;;;;;;4.05;1.10;;;17.10;64.70;;;;;;5070041;28;20514;-67
2023/07/05 09:10:29;;;;;;;2.60;1.05;;;17.40;63.50;;;;;;5068796;28;20434;-68
2023/07/05 09:13:07;;;;;;;3.38;1.70;;;17.60;62.00;;;;;;5063394;28;20426;-68
2023/07/05 09:15:37;;;;;;;1.60;1.00;;;17.80;62.90;;;;;;5071173;28;20434;-69
2023/07/05 09:18:10;;;;;;;2.90;1.42;;;18.00;61.50;;;;;;5071164;28;20419;-68
2023/07/05 09:20:52;;;;;;;3.13;1.10;;;18.00;61.50;;;;;;5069775;28;20428;-68
2023/07/05 09:23:23;;;;;;;1.92;1.10;;;18.10;59.20;;;;;;5070686;28;20412;-69
2023/07/05 09:25:57;;;;;;;3.88;1.40;;;18.20;57.00;;;;;;5070093;28;20435;-68
2023/07/05 09:28:28;;;;;;;2.17;0.80;;;18.30;58.00;;;;;;5070813;28;20423;-68
2023/07/05 09:30:54;;;;;;;2.60;1.10;;;18.40;56.20;;;;;;5070886;28;20423;-68
2023/07/05 09:33:28;;;;;;;4.13;1.10;;;18.40;56.30;;;;;;5070960;28;20431;-68
2023/07/05 09:35:56;;;;;;;4.20;1.60;;;18.50;55.70;;;;;;5071106;28;20408;-68
2023/07/05 09:38:29;;;;;;;4.50;1.40;;;18.50;54.00;;;;;;5064984;28;20438;-68
2023/07/05 09:41:04;;;;;;;3.63;1.23;;;18.50;53.80;;;;;;5067633;28;20423;-67
2023/07/05 09:43:33;;;;;;;2.67;1.40;;;18.50;55.00;;;;;;5070690;28;20419;-68
2023/07/05 09:46:02;;;;;;;3.43;1.80;;;18.50;55.00;;;;;;5070681;28;20419;-66
2023/07/05 09:48:35;;;;;;;4.00;1.50;;;18.40;53.60;;;;;;5070605;28;20419;-68
2023/07/05 09:51:03;;;;;;;2.90;1.20;;;18.30;55.00;;;;;;5070637;28;20428;-68
2023/07/05 09:53:41;;;;;;;3.83;1.33;;;18.20;55.00;;;;;;5069013;28;20523;-68
2023/07/05 09:56:12;;;;;;;3.20;1.20;;;18.40;53.70;;;;;;5070536;28;20420;-66
2023/07/05 09:58:40;;;;;;;5.68;1.70;;;18.60;54.00;;;;;;5070471;28;20408;-66
2023/07/05 10:01:13;;;;;;;2.53;1.20;;;18.60;53.70;;;;;;5070674;28;20870;-66
2023/07/05 10:03:52;;;;;;;3.00;1.60;;;18.80;52.80;;;;;;5070722;28;20419;-66
2023/07/05 10:06:23;;;;;;;3.78;1.30;;;18.90;51.60;;;;;;5070179;28;20416;-66
2023/07/05 10:08:53;;;;;;;3.58;1.60;;;18.90;52.10;;;;;;5067644;28;20432;-66
2023/07/05 10:11:23;;;;;;;3.45;1.30;;;18.90;51.20;;;;;;5070314;28;20419;-66
2023/07/05 10:14:02;;;;;;;3.05;1.20;;;18.90;51.00;;;;;;5069658;28;20419;-67
2023/07/05 10:16:45;;;;;;;3.13;1.53;;;18.90;50.10;;;;;;5069256;28;20453;-66
2023/07/05 10:19:20;;;;;;;3.53;1.80;;;19.00;50.80;;;;;;5069606;28;20993;-66
2023/07/05 10:21:48;;;;;;;2.50;1.25;;;19.20;49.00;;;;;;5070399;28;20897;-66
2023/07/05 10:24:18;;;;;;;2.95;1.60;;;19.10;49.00;;;;;;5068221;28;20450;-68
2023/07/05 10:26:50;;;;;;;3.50;1.60;;;19.10;49.70;;;;;;5069824;28;20838;-66
2023/07/05 10:29:21;;;;;;;3.60;1.30;;;19.10;49.10;;;;;;5068561;28;20503;-66
2023/07/05 10:31:53;;;;;;;4.65;1.50;;;19.40;47.60;;;;;;5069872;28;20403;-67
2023/07/05 10:34:23;;;;;;;2.78;1.20;;;19.60;46.70;;;;;;5069506;28;20886;-67
2023/07/05 10:36:50;;;;;;;2.95;1.20;;;19.60;46.30;;;;;;5068439;28;20455;-66
2023/07/05 10:39:23;;;;;;;3.38;1.20;;;19.70;47.10;;;;;;5067472;28;20527;-68
2023/07/05 10:41:54;;;;;;;5.50;1.40;;;19.90;45.40;;;;;;5069395;28;20427;-68
2023/07/05 10:44:26;;;;;;;2.50;1.27;;;20.00;45.10;;;;;;5068241;28;20471;-68
2023/07/05 10:46:55;;;;;;;3.92;1.58;;;19.90;44.90;;;;;;5069462;28;20416;-67
2023/07/05 10:49:22;;;;;;;4.40;1.30;;;19.90;45.80;;;;;;5068656;28;20419;-68
2023/07/05 10:51:52;;;;;;;3.28;1.48;;;19.80;44.60;;;;;;5068421;28;20538;-68
2023/07/05 10:54:27;;;;;;;5.83;1.70;;;19.60;45.70;;;;;;5068661;28;20416;-68
2023/07/05 10:56:57;;;;;;;4.55;1.42;;;19.80;45.60;;;;;;5090871;22;20435;-69
2023/07/05 10:59:37;;;;;;;5.05;1.70;;;20.10;44.10;;;;;;5069325;28;20423;-70
2023/07/05 11:02:14;;;;;;;5.13;1.30;;;20.00;43.30;;;;;;5070092;28;20418;-71
2023/07/05 11:04:44;;;;;;;3.40;1.70;;;19.90;44.00;;;;;;5068882;28;20806;-70
2023/07/05 11:07:12;;;;;;;4.40;1.70;;;19.80;45.00;;;;;;5065815;28;20444;-70
2023/07/05 11:09:40;;;;;;;4.60;1.40;;;20.00;44.70;;;;;;5068741;28;20422;-70
2023/07/05 11:12:20;;;;;;;3.42;1.50;;;20.20;43.90;;;;;;5069963;28;20416;-71
2023/07/05 11:14:48;;;;;;;4.78;2.10;;;20.30;43.80;;;;;;5069593;28;20430;-69
2023/07/05 11:17:23;;;;;;;3.25;1.45;;;20.50;42.60;;;;;;5068855;28;20485;-70
2023/07/05 11:19:50;;;;;;;3.50;1.45;;;20.70;42.30;;;;;;5068573;28;20547;-70
2023/07/05 11:22:39;;;;;;;4.22;1.50;;;20.70;42.20;;;;;;5066334;28;20439;-70
2023/07/05 11:25:10;;;;;;;3.50;1.40;;;20.60;43.10;;;;;;5061308;28;20446;-71
2023/07/05 11:27:53;;;;;;;3.20;1.30;;;20.60;42.60;;;;;;5069249;28;20428;-71
2023/07/05 11:30:43;;;;;;;3.30;1.40;;;20.50;43.20;;;;;;5069151;28;20412;-71
2023/07/05 11:33:17;;;;;;;4.40;1.30;;;20.60;42.80;;;;;;5069724;28;20415;-70
2023/07/05 11:35:46;;;;;;;2.43;1.37;;;20.70;42.80;;;;;;5068266;28;20435;-71
2023/07/05 11:38:46;;;;;;;2.63;1.30;;;21.00;42.30;;;;;;5069702;28;20891;-71
2023/07/05 11:41:31;;;;;;;3.70;1.70;;;21.20;42.20;;;;;;5068685;28;20423;-72
2023/07/05 11:44:01;;;;;;;2.88;1.20;;;21.60;41.40;;;;;;5061886;28;20432;-71
2023/07/05 11:46:43;;;;;;;3.38;1.40;;;21.70;39.80;;;;;;5069848;28;20411;-72
2023/07/05 11:49:27;;;;;;;3.10;1.50;;;21.50;39.80;;;;;;5069292;28;20491;-71
2023/07/05 11:51:58;;;;;;;2.50;1.25;;;21.10;40.50;;;;;;5068950;28;20434;-71
2023/07/05 11:54:32;;;;;;;3.97;1.80;;;20.60;41.50;;;;;;5068833;28;20449;-71
2023/07/05 11:57:02;;;;;;;5.97;1.73;;;20.30;42.80;;;;;;5069163;28;20782;-71
2023/07/05 11:59:35;;;;;;;3.88;1.70;;;20.30;44.00;;;;;;5069103;28;20432;-72
2023/07/05 12:02:09;;;;;;;2.65;1.25;;;20.80;43.20;;;;;;5069526;28;20532;-71
2023/07/05 12:04:40;;;;;;;5.93;1.75;;;21.20;42.30;;;;;;5069267;28;20422;-71
2023/07/05 12:07:09;;;;;;;4.22;1.90;;;21.40;42.60;;;;;;5067591;28;20861;-72
2023/07/05 12:09:37;;;;;;;2.65;1.50;;;21.70;41.60;;;;;;5066619;28;20525;-71
2023/07/05 12:12:05;;;;;;;3.70;1.75;;;21.80;40.70;;;;;;5069942;28;20447;-72
2023/07/05 12:14:33;;;;;;;2.80;1.50;;;21.90;41.20;;;;;;5068911;28;20823;-72
2023/07/05 12:17:01;;;;;;;3.67;1.60;;;21.80;38.60;;;;;;5069089;28;20412;-70
2023/07/05 12:19:31;;;;;;;3.15;1.50;;;21.40;39.90;;;;;;5069437;28;20541;-72
2023/07/05 12:22:01;;;;;;;2.22;1.40;;;21.10;41.40;;;;;;5071508;28;20473;-72
2023/07/05 12:24:27;;;;;;;3.15;1.90;;;20.90;42.70;;;;;;5072746;28;20419;-70
2023/07/05 12:26:57;;;;;;;3.08;1.40;;;20.70;43.80;;;;;;5073284;28;20408;-71
2023/07/05 12:29:28;;;;;;;3.92;1.58;;;20.60;43.80;;;;;;5072639;28;20514;-71
2023/07/05 12:32:15;;;;;;;3.22;1.80;;;20.50;47.00;;;;;;5073209;28;20492;-71
2023/07/05 12:34:42;;;;;;;3.47;1.40;;;20.30;46.80;;;;;;5072153;28;20511;-71
2023/07/05 12:37:09;;;;;;;6.90;1.70;;;20.20;47.20;;;;;;5072513;28;20415;-71
2023/07/05 12:39:38;;;;;;;3.97;1.60;;;20.00;48.80;;;;;;5071951;28;20473;-71
2023/07/05 12:42:12;;;;;;;2.97;1.50;;;19.80;51.00;;;;;;5073279;28;20480;-72
2023/07/05 12:44:40;;;;;;;3.63;2.00;;;19.70;52.60;;;;;;5073146;28;20421;-71
2023/07/05 12:47:15;;;;;;;5.50;2.00;;;19.50;56.30;;;;;;5069365;28;20559;-71
2023/07/05 12:49:42;;;;;;;4.60;1.83;;;19.30;56.50;;;;;;5072011;28;20403;-71
2023/07/05 12:52:19;;;;;;;3.70;1.60;;;19.60;54.00;;;;;;5074327;28;20434;-71
2023/07/05 12:54:46;;;;;;;2.37;1.50;;;20.00;53.40;;;;;;5073992;28;20468;-71
2023/07/05 12:57:25;;;;;;;3.20;1.50;;;20.20;50.80;;;;;;5073055;28;20498;-72
2023/07/05 12:59:52;;;;;;;3.80;1.70;;;20.40;48.70;;;;;;5073690;28;20423;-72
2023/07/05 13:02:28;;;;;;;3.67;2.08;;;20.80;48.20;;;;;;5073352;28;20538;-72